Time;durP1;ratioP1;P1;durP2;ratioP2;P2;SDS_P1;SDS_P2;PMS_P1;PMS_P2;Temp;Humidity;BMP_temperature;BMP_pressure;BME280_temperature;BME280_humidity;BME280_pressure;Samples;Min_cycle;Max_cycle;Signal;HPM_P1;HPM_P2
2021/07/24 00:00:16;;;;;;;;;;;16.00;99.90;;;;;;5051855;28;20024;-87
2021/07/24 00:02:43;;;;;;;;;;;15.80;99.90;;;;;;5052105;28;19940;-87
2021/07/24 00:05:09;;;;;;;;;;;15.80;99.90;;;;;;5087969;28;20268;-87
2021/07/24 00:07:35;;;;;;;;;;;15.70;99.90;;;;;;5095633;28;19928;-89
2021/07/24 00:10:00;;;;;;;;;;;15.60;99.90;;;;;;5076742;28;19946;-87
2021/07/24 00:12:26;;;;;;;;;;;15.60;99.90;;;;;;5075253;28;20433;-88
2021/07/24 00:14:52;;;;;;;;;;;15.50;99.90;;;;;;5056168;28;20019;-87
2021/07/24 00:17:18;;;;;;;;;;;15.50;99.90;;;;;;5085372;28;19955;-87
2021/07/24 00:19:44;;;;;;;;;;;15.40;99.90;;;;;;5058125;28;19929;-88
2021/07/24 00:22:10;;;;;;;;;;;15.40;99.90;;;;;;5069326;28;19928;-87
2021/07/24 00:24:35;;;;;;;;;;;15.30;99.90;;;;;;5054951;28;20411;-88
2021/07/24 00:27:01;;;;;;;;;;;15.30;99.90;;;;;;5068473;28;19924;-87
2021/07/24 00:29:27;;;;;;;;;;;15.20;99.90;;;;;;5068999;28;19928;-87
2021/07/24 00:31:52;;;;;;;;;;;15.20;99.90;;;;;;5085682;28;19925;-87
2021/07/24 00:34:18;;;;;;;;;;;15.10;99.90;;;;;;5056557;28;19939;-87
2021/07/24 00:36:44;;;;;;;;;;;15.10;99.90;;;;;;5070485;28;19933;-87
2021/07/24 00:39:10;;;;;;;;;;;15.10;99.90;;;;;;5067963;28;19925;-87
2021/07/24 00:41:41;;;;;;;;;;;15.00;99.90;;;;;;5068722;28;19928;-88
2021/07/24 00:44:08;;;;;;;;;;;15.00;99.90;;;;;;5067843;28;19928;-87
2021/07/24 00:46:35;;;;;;;;;;;14.90;99.90;;;;;;5069710;28;19982;-88
2021/07/24 00:49:01;;;;;;;;;;;14.90;99.90;;;;;;5056299;28;19977;-88
2021/07/24 00:51:29;;;;;;;;;;;14.80;99.90;;;;;;5076200;28;20406;-88
2021/07/24 00:53:55;;;;;;;;;;;14.80;99.90;;;;;;5068511;28;20280;-88
2021/07/24 00:56:22;;;;;;;;;;;14.80;99.90;;;;;;5068127;28;19932;-88
2021/07/24 00:58:48;;;;;;;;;;;14.70;99.90;;;;;;5068256;28;19940;-88
2021/07/24 01:01:13;;;;;;;;;;;14.70;99.90;;;;;;5079483;28;19925;-87
2021/07/24 01:03:39;;;;;;;;;;;14.70;99.90;;;;;;5068541;28;19935;-88
2021/07/24 01:06:05;;;;;;;;;;;14.60;99.90;;;;;;5051202;28;19924;-88
2021/07/24 01:08:32;;;;;;;;;;;14.60;99.90;;;;;;5069487;28;20474;-88
2021/07/24 01:10:58;;;;;;;;;;;14.60;99.90;;;;;;5069349;28;19928;-90
2021/07/24 01:13:23;;;;;;;;;;;14.60;99.90;;;;;;5068035;28;19935;-88
2021/07/24 01:15:50;;;;;;;;;;;14.60;99.90;;;;;;5069555;28;19974;-88
2021/07/24 01:18:17;;;;;;;;;;;14.60;99.90;;;;;;5068658;28;19960;-87
2021/07/24 01:20:43;;;;;;;;;;;14.60;99.90;;;;;;5081480;28;19967;-88
2021/07/24 01:23:09;;;;;;;;;;;14.60;99.90;;;;;;5067588;28;19928;-88
2021/07/24 01:25:44;;;;;;;;;;;14.60;99.90;;;;;;5085232;28;19928;-87
2021/07/24 01:28:10;;;;;;;;;;;14.60;99.90;;;;;;5078723;28;19925;-87
2021/07/24 01:30:35;;;;;;;;;;;14.60;99.90;;;;;;5051893;28;19974;-88
2021/07/24 01:33:01;;;;;;;;;;;14.50;99.90;;;;;;5067876;28;19931;-90
2021/07/24 01:35:27;;;;;;;;;;;14.50;99.90;;;;;;5075704;28;20406;-89
2021/07/24 01:37:52;;;;;;;;;;;14.50;99.90;;;;;;5057174;28;20325;-88
2021/07/24 01:40:18;;;;;;;;;;;14.40;99.90;;;;;;5071521;28;19928;-87
2021/07/24 01:42:44;;;;;;;;;;;14.40;99.90;;;;;;5088721;28;19924;-88
2021/07/24 01:45:10;;;;;;;;;;;14.30;99.90;;;;;;5072509;28;19978;-87
2021/07/24 01:47:36;;;;;;;;;;;14.30;99.90;;;;;;5073006;28;19928;-88
2021/07/24 01:52:48;;;;;;;;;;;14.20;99.90;;;;;;5074637;28;20344;-88
2021/07/24 01:55:22;;;;;;;;;;;14.10;99.90;;;;;;5060044;28;19981;-87
2021/07/24 01:57:49;;;;;;;;;;;14.20;99.90;;;;;;5072995;28;19933;-87
2021/07/24 02:00:15;;;;;;;;;;;14.10;99.90;;;;;;5087032;28;19925;-87
2021/07/24 02:02:42;;;;;;;;;;;14.10;99.90;;;;;;5071757;28;19924;-87
2021/07/24 02:05:14;;;;;;;;;;;14.10;99.90;;;;;;5070892;28;20287;-87
2021/07/24 02:07:41;;;;;;;;;;;14.10;99.90;;;;;;5071821;28;19928;-88
2021/07/24 02:10:07;;;;;;;;;;;14.10;99.90;;;;;;5071080;28;19929;-88
2021/07/24 02:12:33;;;;;;;;;;;14.00;99.90;;;;;;5087478;28;19924;-87
2021/07/24 02:15:00;;;;;;;;;;;14.00;99.90;;;;;;5072695;28;19928;-88
2021/07/24 02:17:28;;;;;;;;;;;14.00;99.90;;;;;;5070655;28;19928;-87
2021/07/24 02:19:56;;;;;;;;;;;14.00;99.90;;;;;;5072520;28;19928;-87
2021/07/24 02:22:22;;;;;;;;;;;13.90;99.90;;;;;;5070606;28;20152;-87
2021/07/24 02:24:47;;;;;;;;;;;14.00;99.90;;;;;;5071121;28;20437;-88
2021/07/24 02:27:13;;;;;;;;;;;14.00;99.90;;;;;;5065890;28;20323;-88
2021/07/24 02:29:39;;;;;;;;;;;14.00;99.90;;;;;;5072186;28;20035;-88
2021/07/24 02:32:05;;;;;;;;;;;14.00;99.90;;;;;;5072007;28;19924;-89
2021/07/24 02:34:30;;;;;;;;;;;14.00;99.90;;;;;;5071503;28;19924;-87
2021/07/24 02:36:56;;;;;;;;;;;14.00;99.90;;;;;;5053446;28;19924;-87
2021/07/24 02:39:22;;;;;;;;;;;14.00;99.90;;;;;;5086826;28;19974;-87
2021/07/24 02:41:47;;;;;;;;;;;13.90;99.90;;;;;;5066098;28;20269;-87
2021/07/24 02:44:13;;;;;;;;;;;13.90;99.90;;;;;;5078248;28;20294;-86
2021/07/24 02:46:39;;;;;;;;;;;13.90;99.90;;;;;;5033964;28;20329;-87
2021/07/24 02:49:04;;;;;;;;;;;13.80;99.90;;;;;;5050552;28;19985;-90
2021/07/24 02:51:30;;;;;;;;;;;13.80;99.90;;;;;;5041537;28;19963;-85
2021/07/24 02:53:56;;;;;;;;;;;13.80;99.90;;;;;;5069826;28;19932;-87
2021/07/24 02:56:21;;;;;;;;;;;13.80;99.90;;;;;;5053001;28;19960;-87
2021/07/24 02:58:47;;;;;;;;;;;13.80;99.90;;;;;;5071283;28;19928;-88
2021/07/24 03:01:12;;;;;;;;;;;13.70;99.90;;;;;;5064693;28;19924;-87
2021/07/24 03:03:38;;;;;;;;;;;13.70;99.90;;;;;;5086696;28;19928;-87
2021/07/24 03:06:04;;;;;;;;;;;13.60;99.90;;;;;;5071383;28;19924;-89
2021/07/24 03:08:30;;;;;;;;;;;13.60;99.90;;;;;;5069378;28;20015;-87
2021/07/24 03:10:56;;;;;;;;;;;13.60;99.90;;;;;;5062023;28;20085;-87
2021/07/24 03:13:21;;;;;;;;;;;13.60;99.90;;;;;;5085916;28;19932;-87
2021/07/24 03:15:47;;;;;;;;;;;13.60;99.90;;;;;;5071078;28;19955;-89
2021/07/24 03:18:13;;;;;;;;;;;13.50;99.90;;;;;;5069464;28;20300;-87
2021/07/24 03:20:39;;;;;;;;;;;13.50;99.90;;;;;;5069103;28;19956;-87
2021/07/24 03:23:04;;;;;;;;;;;13.40;99.90;;;;;;5069450;28;20383;-89
2021/07/24 03:25:30;;;;;;;;;;;13.40;99.90;;;;;;5069419;28;19924;-87
2021/07/24 03:27:56;;;;;;;;;;;13.40;99.90;;;;;;5071168;28;19970;-87
2021/07/24 03:30:22;;;;;;;;;;;13.30;99.90;;;;;;5070057;28;19935;-87
2021/07/24 03:32:47;;;;;;;;;;;13.30;99.90;;;;;;5070832;28;19929;-86
2021/07/24 03:35:13;;;;;;;;;;;13.20;99.90;;;;;;5067786;28;20303;-87
2021/07/24 03:37:39;;;;;;;;;;;13.20;99.90;;;;;;5070507;28;19934;-87
2021/07/24 03:40:05;;;;;;;;;;;13.20;99.90;;;;;;5084617;28;19977;-87
2021/07/24 03:42:31;;;;;;;;;;;13.20;99.90;;;;;;5070380;28;19935;-88
2021/07/24 03:44:56;;;;;;;;;;;13.10;99.90;;;;;;5071201;28;19967;-87
2021/07/24 03:47:22;;;;;;;;;;;13.10;99.90;;;;;;5085274;28;20664;-88
2021/07/24 03:49:48;;;;;;;;;;;13.10;99.90;;;;;;5052985;28;20396;-88
2021/07/24 03:52:13;;;;;;;;;;;13.10;99.90;;;;;;5062630;28;19925;-87
2021/07/24 03:54:39;;;;;;;;;;;13.10;99.90;;;;;;5069783;28;19978;-88
2021/07/24 03:57:05;;;;;;;;;;;13.20;99.90;;;;;;5071117;28;19967;-88
2021/07/24 03:59:30;;;;;;;;;;;13.20;99.90;;;;;;5086726;28;19983;-88
2021/07/24 04:01:58;;;;;;;;;;;13.20;99.90;;;;;;5049824;28;19925;-88
2021/07/24 04:04:24;;;;;;;;;;;13.20;99.90;;;;;;5059953;28;19989;-88
2021/07/24 04:06:51;;;;;;;;;;;13.20;99.90;;;;;;5087029;28;20424;-88
2021/07/24 04:09:16;;;;;;;;;;;13.20;99.90;;;;;;5069433;28;20070;-88
2021/07/24 04:11:43;;;;;;;;;;;13.20;99.90;;;;;;5069392;28;20014;-88
2021/07/24 04:14:08;;;;;;;;;;;13.20;99.90;;;;;;5082717;28;20445;-90
2021/07/24 04:16:34;;;;;;;;;;;13.20;99.90;;;;;;5069644;28;19925;-88
2021/07/24 04:19:03;;;;;;;;;;;13.20;99.90;;;;;;5069819;28;19935;-88
2021/07/24 04:21:29;;;;;;;;;;;13.30;99.90;;;;;;5070177;28;20486;-86
2021/07/24 04:23:55;;;;;;;;;;;13.30;99.90;;;;;;5060651;28;19929;-87
2021/07/24 04:26:23;;;;;;;;;;;13.30;99.90;;;;;;5067854;28;20432;-86
2021/07/24 04:28:48;;;;;;;;;;;13.30;99.90;;;;;;5068978;28;19974;-86
2021/07/24 04:31:14;;;;;;;;;;;13.40;99.90;;;;;;5085080;28;19924;-85
2021/07/24 04:33:40;;;;;;;;;;;13.40;99.90;;;;;;5051916;28;20403;-85
2021/07/24 04:36:06;;;;;;;;;;;13.40;99.90;;;;;;5068596;28;19924;-85
2021/07/24 04:38:32;;;;;;;;;;;13.50;99.90;;;;;;5067921;28;20394;-86
2021/07/24 04:40:57;;;;;;;;;;;13.50;99.90;;;;;;5069848;28;20272;-86
2021/07/24 04:43:26;;;;;;;;;;;13.50;99.90;;;;;;5084634;28;19924;-87
2021/07/24 04:45:51;;;;;;;;;;;13.50;99.90;;;;;;5068964;28;20031;-87
2021/07/24 04:48:17;;;;;;;;;;;13.50;99.90;;;;;;5062782;28;19925;-86
2021/07/24 04:50:44;;;;;;;;;;;13.60;99.90;;;;;;5085666;28;19928;-88
2021/07/24 04:53:13;;;;;;;;;;;13.70;99.90;;;;;;5067955;28;19924;-86
2021/07/24 04:55:39;;;;;;;;;;;13.70;99.90;;;;;;5065601;28;19928;-87
2021/07/24 04:58:06;;;;;;;;;;;13.80;99.90;;;;;;5068651;28;19947;-89
2021/07/24 05:00:32;;;;;;;;;;;13.80;99.90;;;;;;5059361;28;19920;-88
2021/07/24 05:02:58;;;;;;;;;;;13.90;99.90;;;;;;5069402;28;19928;-87
2021/07/24 05:05:24;;;;;;;;;;;13.90;99.90;;;;;;5068168;28;19924;-87
2021/07/24 05:07:49;;;;;;;;;;;14.00;99.90;;;;;;5069748;28;20063;-88
2021/07/24 05:10:15;;;;;;;;;;;14.10;99.90;;;;;;5051971;28;20368;-89
2021/07/24 05:12:41;;;;;;;;;;;14.10;99.90;;;;;;5068503;28;19932;-86
2021/07/24 05:15:07;;;;;;;;;;;14.20;99.90;;;;;;5076332;28;19988;-88
2021/07/24 05:17:37;;;;;;;;;;;14.20;99.90;;;;;;5067747;28;20443;-90
2021/07/24 05:20:03;;;;;;;;;;;14.40;99.90;;;;;;5072531;28;19928;-89
2021/07/24 05:22:29;;;;;;;;;;;14.40;99.90;;;;;;5074728;28;19930;-88
2021/07/24 05:24:55;;;;;;;;;;;14.50;99.90;;;;;;5089609;28;19928;-87
2021/07/24 05:27:20;;;;;;;;;;;14.50;99.90;;;;;;5089086;28;19951;-88
2021/07/24 05:29:46;;;;;;;;;;;14.60;99.90;;;;;;5070817;28;19931;-88
2021/07/24 05:32:13;;;;;;;;;;;14.70;99.90;;;;;;5073253;28;19963;-88
2021/07/24 05:34:38;;;;;;;;;;;14.80;99.90;;;;;;5071601;28;20150;-87
2021/07/24 05:37:04;;;;;;;;;;;14.80;99.90;;;;;;5072810;28;19925;-88
2021/07/24 05:39:30;;;;;;;;;;;14.90;99.90;;;;;;5096101;28;20014;-90
2021/07/24 05:41:55;;;;;;;;;;;14.90;99.90;;;;;;5072232;28;19978;-88
2021/07/24 05:44:21;;;;;;;;;;;15.00;99.90;;;;;;5071373;28;20334;-88
2021/07/24 05:46:47;;;;;;;;;;;15.10;99.90;;;;;;5071795;28;19939;-89
2021/07/24 05:49:12;;;;;;;;;;;15.20;99.90;;;;;;5070193;28;19925;-86
2021/07/24 05:51:39;;;;;;;;;;;15.20;99.90;;;;;;5069791;28;19924;-85
2021/07/24 05:54:08;;;;;;;;;;;15.30;99.90;;;;;;5072007;28;19925;-84
2021/07/24 05:56:35;;;;;;;;;;;15.40;99.90;;;;;;5071816;28;19928;-83
2021/07/24 05:59:01;;;;;;;;;;;15.40;99.90;;;;;;5070907;28;19925;-84
2021/07/24 06:01:32;;;;;;;;;;;15.50;99.90;;;;;;5069911;28;19924;-84
2021/07/24 06:03:58;;;;;;;;;;;15.50;99.90;;;;;;5070715;28;20449;-84
2021/07/24 06:06:24;;;;;;;;;;;15.60;99.90;;;;;;5090855;28;19924;-83
2021/07/24 06:08:49;;;;;;;;;;;15.60;99.90;;;;;;5069363;28;19924;-84
2021/07/24 06:11:15;;;;;;;;;;;15.70;99.90;;;;;;5070731;28;19928;-84
2021/07/24 06:13:41;;;;;;;;;;;15.70;99.90;;;;;;5075682;28;20790;-84
2021/07/24 06:16:10;;;;;;;;;;;15.80;99.90;;;;;;5072544;28;19928;-85
2021/07/24 06:18:36;;;;;;;;;;;15.80;99.90;;;;;;5088292;28;19928;-84
2021/07/24 06:21:02;;;;;;;;;;;15.90;99.90;;;;;;5070492;28;20289;-84
2021/07/24 06:23:28;;;;;;;;;;;16.00;99.90;;;;;;5069783;28;19939;-84
2021/07/24 06:25:54;;;;;;;;;;;16.00;99.90;;;;;;5072347;28;19925;-84
2021/07/24 06:28:21;;;;;;;;;;;16.10;99.90;;;;;;5072158;28;19928;-88
2021/07/24 06:30:47;;;;;;;;;;;16.20;99.90;;;;;;5071034;28;20027;-86
2021/07/24 06:33:13;;;;;;;;;;;16.20;99.90;;;;;;5068861;28;20371;-83
2021/07/24 06:35:39;;;;;;;;;;;16.30;99.90;;;;;;5069319;28;19956;-84
2021/07/24 06:38:04;;;;;;;;;;;16.40;99.90;;;;;;5069867;28;19974;-83
2021/07/24 06:40:30;;;;;;;;;;;16.40;99.90;;;;;;5051542;28;19964;-83
2021/07/24 06:42:58;;;;;;;;;;;16.50;99.90;;;;;;5073765;28;19928;-83
2021/07/24 06:45:24;;;;;;;;;;;16.60;99.90;;;;;;5070069;28;20297;-86
2021/07/24 06:47:50;;;;;;;;;;;16.60;99.90;;;;;;5048552;28;20035;-83
2021/07/24 06:50:15;;;;;;;;;;;16.70;99.90;;;;;;5087441;28;19928;-84
2021/07/24 06:52:41;;;;;;;;;;;16.80;99.90;;;;;;5069845;28;19928;-84
2021/07/24 06:55:07;;;;;;;;;;;16.90;99.90;;;;;;5070958;28;19947;-84
2021/07/24 06:57:32;;;;;;;;;;;16.90;99.90;;;;;;5070077;28;19925;-84
2021/07/24 06:59:58;;;;;;;;;;;17.00;99.90;;;;;;5070797;28;19990;-84
2021/07/24 07:02:24;;;;;;;;;;;17.10;99.90;;;;;;5070524;28;20359;-88
2021/07/24 07:04:50;;;;;;;;;;;17.10;99.90;;;;;;5093042;28;19924;-83
2021/07/24 07:07:15;;;;;;;;;;;17.20;99.90;;;;;;5070266;28;20015;-84
2021/07/24 07:09:43;;;;;;;;;;;17.30;99.90;;;;;;5068295;28;19928;-84
2021/07/24 07:12:09;;;;;;;;;;;17.40;99.90;;;;;;5070456;28;19936;-84
2021/07/24 07:14:34;;;;;;;;;;;17.40;99.90;;;;;;5051278;28;19982;-83
2021/07/24 07:17:00;;;;;;;;;;;17.50;99.90;;;;;;5069441;28;19925;-84
2021/07/24 07:19:25;;;;;;;;;;;17.50;99.90;;;;;;5068576;28;19929;-87
2021/07/24 07:21:51;;;;;;;;;;;17.50;99.90;;;;;;5084223;28;20376;-85
2021/07/24 07:24:17;;;;;;;;;;;17.60;99.90;;;;;;5069242;28;19924;-82
2021/07/24 07:26:44;;;;;;;;;;;17.60;99.90;;;;;;5069885;28;19959;-84
2021/07/24 07:29:09;;;;;;;;;;;17.70;99.90;;;;;;5069969;28;19956;-83
2021/07/24 07:31:36;;;;;;;;;;;17.70;99.90;;;;;;5083990;28;19998;-84
2021/07/24 07:34:02;;;;;;;;;;;17.80;99.90;;;;;;5068452;28;19932;-83
2021/07/24 07:36:28;;;;;;;;;;;17.80;99.90;;;;;;5067036;28;19966;-87
2021/07/24 07:38:54;;;;;;;;;;;17.90;99.90;;;;;;5069472;28;19928;-83
2021/07/24 07:41:19;;;;;;;;;;;18.00;99.90;;;;;;5068089;28;19974;-84
2021/07/24 07:43:46;;;;;;;;;;;18.10;99.90;;;;;;5068628;28;19935;-84
2021/07/24 07:46:12;;;;;;;;;;;18.10;99.90;;;;;;5068373;28;19924;-83
2021/07/24 07:48:37;;;;;;;;;;;18.20;99.90;;;;;;5068734;28;20546;-83
2021/07/24 07:51:04;;;;;;;;;;;18.30;99.90;;;;;;5074361;28;19932;-84
2021/07/24 07:53:30;;;;;;;;;;;18.40;99.90;;;;;;5066285;28;19931;-87
2021/07/24 07:55:55;;;;;;;;;;;18.50;99.90;;;;;;5067673;28;20319;-86
2021/07/24 07:58:23;;;;;;;;;;;18.50;99.90;;;;;;5064016;28;20356;-84
2021/07/24 08:00:49;;;;;;;;;;;18.60;99.90;;;;;;5083923;28;19961;-85
2021/07/24 08:03:15;;;;;;;;;;;18.70;99.90;;;;;;5063220;28;20042;-85
2021/07/24 08:05:41;;;;;;;;;;;18.80;99.90;;;;;;5047633;28;20317;-84
2021/07/24 08:08:07;;;;;;;;;;;18.90;99.90;;;;;;5061843;28;19928;-84
2021/07/24 08:10:34;;;;;;;;;;;19.00;99.90;;;;;;5068022;28;19939;-84
2021/07/24 08:13:12;;;;;;;;;;;19.00;99.90;;;;;;5066241;28;19966;-84
2021/07/24 08:15:38;;;;;;;;;;;19.10;99.90;;;;;;5067897;28;19924;-84
2021/07/24 08:18:03;;;;;;;;;;;19.10;99.90;;;;;;5041837;28;19934;-87
2021/07/24 08:20:29;;;;;;;;;;;19.20;99.90;;;;;;5069424;28;20295;-89
2021/07/24 08:22:55;;;;;;;;;;;19.30;99.90;;;;;;5067725;28;20051;-84
2021/07/24 08:25:21;;;;;;;;;;;19.40;99.90;;;;;;5085484;28;19931;-85
2021/07/24 08:27:47;;;;;;;;;;;19.50;99.90;;;;;;5068770;28;19924;-84
2021/07/24 08:30:12;;;;;;;;;;;19.60;99.90;;;;;;5069760;28;20019;-84
2021/07/24 08:32:38;;;;;;;;;;;19.60;99.90;;;;;;5067400;28;19950;-84
2021/07/24 08:35:04;;;;;;;;;;;19.70;99.90;;;;;;5084799;28;19929;-87
2021/07/24 08:37:33;;;;;;;;;;;19.80;99.90;;;;;;5079910;28;19936;-87
2021/07/24 08:39:58;;;;;;;;;;;19.90;99.90;;;;;;5068006;28;19978;-85
2021/07/24 08:42:27;;;;;;;;;;;20.00;99.90;;;;;;5063621;28;19924;-85
2021/07/24 08:44:53;;;;;;;;;;;20.00;99.90;;;;;;5064057;28;19920;-85
2021/07/24 08:47:18;;;;;;;;;;;20.10;99.90;;;;;;5084266;28;19929;-85
2021/07/24 08:49:44;;;;;;;;;;;20.10;99.90;;;;;;5087409;28;19937;-84
2021/07/24 08:52:12;;;;;;;;;;;20.20;99.90;;;;;;5073135;28;20023;-84
2021/07/24 08:54:41;;;;;;;;;;;20.30;99.90;;;;;;5071304;28;19924;-85
2021/07/24 08:57:07;;;;;;;;;;;20.30;99.90;;;;;;5066315;28;19925;-85
2021/07/24 08:59:35;;;;;;;;;;;20.40;99.90;;;;;;5073323;28;20394;-86
2021/07/24 09:02:01;;;;;;;;;;;20.50;99.90;;;;;;5073776;28;19924;-85
2021/07/24 09:04:27;;;;;;;;;;;20.60;99.90;;;;;;5063571;28;20011;-84
2021/07/24 09:07:02;;;;;;;;;;;20.70;99.90;;;;;;5072246;28;20015;-84
2021/07/24 09:09:28;;;;;;;;;;;20.80;99.90;;;;;;5073120;28;19928;-85
2021/07/24 09:11:53;;;;;;;;;;;20.80;99.90;;;;;;5067372;28;19920;-85
2021/07/24 09:14:19;;;;;;;;;;;20.90;99.90;;;;;;5063708;28;19932;-84
2021/07/24 09:16:45;;;;;;;;;;;21.00;99.90;;;;;;5087863;28;20691;-87
2021/07/24 09:19:11;;;;;;;;;;;21.10;99.90;;;;;;5071128;28;19931;-84
2021/07/24 09:21:38;;;;;;;;;;;21.10;99.90;;;;;;5069646;28;19925;-89
2021/07/24 09:24:17;;;;;;;;;;;21.20;99.90;;;;;;5071521;28;19963;-86
2021/07/24 09:26:43;;;;;;;;;;;21.30;99.90;;;;;;5059045;28;19924;-84
2021/07/24 09:29:10;;;;;;;;;;;21.40;99.90;;;;;;5070933;28;19928;-84
2021/07/24 09:31:39;;;;;;;;;;;21.50;99.90;;;;;;5070910;28;19938;-89
2021/07/24 09:34:05;;;;;;;;;;;21.50;99.90;;;;;;5070145;28;19974;-84
2021/07/24 09:36:31;;;;;;;;;;;21.60;99.90;;;;;;5071024;28;20281;-84
2021/07/24 09:39:07;;;;;;;;;;;21.60;99.90;;;;;;5071771;28;19928;-85
2021/07/24 09:41:33;;;;;;;;;;;21.70;99.90;;;;;;5086261;28;19924;-85
2021/07/24 09:43:59;;;;;;;;;;;21.80;99.90;;;;;;5070683;28;19967;-85
2021/07/24 09:46:27;;;;;;;;;;;21.90;99.90;;;;;;5087875;28;19925;-84
2021/07/24 09:48:53;;;;;;;;;;;22.00;99.90;;;;;;5070370;28;19990;-85
2021/07/24 09:51:35;;;;;;;;;;;22.10;99.90;;;;;;5067506;28;20390;-84
2021/07/24 09:54:01;;;;;;;;;;;22.20;99.90;;;;;;5087092;28;19974;-85
2021/07/24 09:56:49;;;;;;;;;;;22.20;99.90;;;;;;5072119;28;19932;-88
2021/07/24 09:59:14;;;;;;;;;;;22.30;99.90;;;;;;5066716;28;19925;-84
2021/07/24 10:01:41;;;;;;;;;;;22.40;99.90;;;;;;5086991;28;19924;-89
2021/07/24 10:04:07;;;;;;;;;;;22.50;99.90;;;;;;5051037;28;19925;-85
2021/07/24 10:06:33;;;;;;;;;;;22.60;99.90;;;;;;5069754;28;20007;-84
2021/07/24 10:08:58;;;;;;;;;;;22.60;99.90;;;;;;5069931;28;20624;-86
2021/07/24 10:11:24;;;;;;;;;;;22.60;99.90;;;;;;5070689;28;19971;-86
2021/07/24 10:13:50;;;;;;;;;;;22.70;99.90;;;;;;5067348;28;19931;-85
2021/07/24 10:16:18;;;;;;;;;;;22.80;99.90;;;;;;5069127;28;20031;-86
2021/07/24 10:18:45;;;;;;;;;;;22.70;99.90;;;;;;5067747;28;20027;-85
2021/07/24 10:21:11;;;;;;;;;;;22.90;99.90;;;;;;5069844;28;20034;-86
2021/07/24 10:23:36;;;;;;;;;;;22.90;99.90;;;;;;5066004;28;20019;-85
2021/07/24 10:26:02;;;;;;;;;;;23.00;99.90;;;;;;5066128;28;19968;-86
2021/07/24 10:28:48;;;;;;;;;;;23.20;99.90;;;;;;5085901;28;19925;-86
2021/07/24 10:31:15;;;;;;;;;;;23.30;99.90;;;;;;5068809;28;19931;-86
2021/07/24 10:33:42;;;;;;;;;;;23.40;99.90;;;;;;5069149;28;19937;-90
2021/07/24 10:36:11;;;;;;;;;;;23.50;99.90;;;;;;5068980;28;20015;-87
2021/07/24 10:38:36;;;;;;;;;;;23.60;99.90;;;;;;5052412;28;19925;-85
2021/07/24 10:41:21;;;;;;;;;;;23.60;99.90;;;;;;5063540;28;19976;-85
2021/07/24 10:43:57;;;;;;;;;;;23.60;99.90;;;;;;5072234;28;19932;-85
2021/07/24 10:46:45;;;;;;;;;;;23.70;99.90;;;;;;5069182;28;20005;-88
2021/07/24 10:49:30;;;;;;;;;;;23.80;99.90;;;;;;5069959;28;20324;-87
2021/07/24 10:51:56;;;;;;;;;;;24.00;99.90;;;;;;5068153;28;19981;-86
2021/07/24 10:54:22;;;;;;;;;;;24.20;99.90;;;;;;5070211;28;19932;-86
2021/07/24 10:56:48;;;;;;;;;;;24.30;99.90;;;;;;5063419;28;19932;-86
2021/07/24 10:59:16;;;;;;;;;;;24.30;99.90;;;;;;5065800;28;19932;-86
2021/07/24 11:01:46;;;;;;;;;;;24.40;99.90;;;;;;5068955;28;19928;-89
2021/07/24 11:04:30;;;;;;;;;;;24.60;99.90;;;;;;5005822;28;1800059;-86
2021/07/24 11:07:15;;;;;;;;;;;24.80;99.90;;;;;;5069470;28;19993;-86
2021/07/24 11:09:41;;;;;;;;;;;25.00;99.90;;;;;;5062960;28;20402;-86
2021/07/24 11:12:08;;;;;;;;;;;25.20;99.90;;;;;;5061170;28;20467;-86
2021/07/24 11:14:36;;;;;;;;;;;25.30;99.90;;;;;;5070482;28;19924;-86
2021/07/24 11:17:05;;;;;;;;;;;25.40;99.90;;;;;;5069863;28;19932;-86
2021/07/24 11:19:38;;;;;;;;;;;25.60;99.90;;;;;;5070106;28;20663;-87
2021/07/24 11:22:14;;;;;;;;;;;25.80;99.90;;;;;;5048486;28;20281;-86
2021/07/24 11:24:40;;;;;;;;;;;25.90;99.90;;;;;;5070227;28;19932;-87
2021/07/24 11:27:06;;;;;;;;;;;26.00;99.90;;;;;;5067088;28;20508;-86
2021/07/24 11:29:33;;;;;;;;;;;26.00;99.90;;;;;;5070234;28;19925;-86
2021/07/24 11:31:59;;;;;;;;;;;26.00;99.90;;;;;;5081079;28;19935;-85
2021/07/24 11:34:26;;;;;;;;;;;26.00;99.90;;;;;;5066588;28;19925;-86
2021/07/24 11:36:51;;;;;;;;;;;26.10;99.90;;;;;;5069458;28;19928;-87
2021/07/24 11:39:27;;;;;;;;;;;26.10;99.90;;;;;;5070345;28;19924;-86
2021/07/24 11:41:53;;;;;;;;;;;26.00;99.90;;;;;;5069282;28;19952;-86
2021/07/24 11:44:31;;;;;;;;;;;25.90;99.90;;;;;;5051126;28;19929;-86
2021/07/24 11:47:01;;;;;;;;;;;26.00;99.90;;;;;;5056608;28;19946;-87
2021/07/24 11:49:27;;;;;;;;;;;26.20;99.90;;;;;;5068274;28;19999;-87
2021/07/24 11:51:53;;;;;;;;;;;26.30;99.90;;;;;;5064333;28;19925;-86
2021/07/24 11:54:28;;;;;;;;;;;26.40;99.90;;;;;;5082361;28;20453;-88
2021/07/24 11:56:54;;;;;;;;;;;26.50;99.90;;;;;;5065543;28;19950;-85
2021/07/24 11:59:20;;;;;;;;;;;26.50;99.90;;;;;;5068880;28;19924;-86
2021/07/24 12:01:45;;;;;;;;;;;26.60;99.90;;;;;;5067721;28;19931;-86
2021/07/24 12:04:12;;;;;;;;;;;26.60;99.90;;;;;;5059179;28;19924;-87
2021/07/24 12:06:39;;;;;;;;;;;26.80;99.90;;;;;;5069526;28;19925;-87
2021/07/24 12:09:05;;;;;;;;;;;26.80;99.90;;;;;;5068153;28;19932;-86
2021/07/24 12:11:31;;;;;;;;;;;26.90;99.90;;;;;;5068763;28;19935;-88
2021/07/24 12:14:04;;;;;;;;;;;27.00;99.90;;;;;;5067603;28;19925;-84
2021/07/24 12:16:40;;;;;;;;;;;27.20;99.90;;;;;;5067832;28;19924;-84
2021/07/24 12:19:13;;;;;;;;;;;27.40;99.90;;;;;;5063405;28;20359;-84
2021/07/24 12:21:39;;;;;;;;;;;27.50;99.90;;;;;;5068040;28;20374;-84
2021/07/24 12:24:05;;;;;;;;;;;27.70;99.90;;;;;;5068830;28;20027;-86
2021/07/24 12:26:32;;;;;;;;;;;27.80;99.90;;;;;;5055794;28;19954;-83
2021/07/24 12:29:01;;;;;;;;;;;28.00;99.90;;;;;;5061570;28;19932;-84
2021/07/24 12:31:29;;;;;;;;;;;28.30;99.90;;;;;;5068163;28;19932;-84
2021/07/24 12:33:55;;;;;;;;;;;28.40;99.90;;;;;;5068615;28;19924;-84
2021/07/24 12:36:22;;;;;;;;;;;28.40;99.90;;;;;;5068019;28;20456;-84
2021/07/24 12:38:48;;;;;;;;;;;28.80;99.90;;;;;;5065018;28;19928;-83
2021/07/24 12:41:14;;;;;;;;;;;28.90;99.90;;;;;;5067630;28;19928;-84
2021/07/24 12:43:42;;;;;;;;;;;28.90;99.80;;;;;;5069913;28;19958;-83
2021/07/24 12:46:11;;;;;;;;;;;28.90;99.80;;;;;;5067730;28;19934;-85
2021/07/24 12:48:41;;;;;;;;;;;29.20;99.90;;;;;;5055444;28;19978;-84
2021/07/24 12:51:17;;;;;;;;;;;29.50;99.90;;;;;;5068839;28;19965;-84
2021/07/24 12:53:46;;;;;;;;;;;29.70;99.90;;;;;;5068480;28;19924;-84
2021/07/24 12:56:11;;;;;;;;;;;29.80;99.10;;;;;;5067642;28;19932;-84
2021/07/24 12:58:38;;;;;;;;;;;29.90;99.80;;;;;;5084674;28;19931;-84
2021/07/24 13:01:08;;;;;;;;;;;30.20;99.90;;;;;;5067716;28;20029;-84
2021/07/24 13:03:34;;;;;;;;;;;30.10;98.60;;;;;;5066776;28;19986;-84
2021/07/24 13:05:59;;;;;;;;;;;30.60;98.60;;;;;;5083997;28;20380;-86
2021/07/24 13:08:25;;;;;;;;;;;30.60;98.60;;;;;;5067788;28;19924;-84
2021/07/24 13:10:51;;;;;;;;;;;30.90;98.60;;;;;;5068821;28;19924;-88
2021/07/24 13:13:16;;;;;;;;;;;31.00;97.90;;;;;;5083058;28;20587;-87
2021/07/24 13:15:42;;;;;;;;;;;31.20;98.30;;;;;;5068178;28;19925;-87
2021/07/24 13:18:07;;;;;;;;;;;31.20;96.40;;;;;;5066022;28;19931;-86
2021/07/24 13:20:34;;;;;;;;;;;31.40;97.50;;;;;;5068323;28;19925;-84
2021/07/24 13:23:00;;;;;;;;;;;31.40;97.40;;;;;;5066861;28;19924;-85
2021/07/24 13:28:17;;;;;;;;;;;31.60;95.90;;;;;;5066893;28;19925;-84
2021/07/24 13:30:49;;;;;;;;;;;31.60;95.40;;;;;;5068374;28;19931;-84
2021/07/24 13:33:16;;;;;;;;;;;32.00;96.10;;;;;;5068145;28;19961;-84
2021/07/24 13:35:42;;;;;;;;;;;31.80;95.80;;;;;;5071400;28;19998;-84
2021/07/24 13:38:08;;;;;;;;;;;31.90;96.20;;;;;;5087063;28;20486;-85
2021/07/24 13:40:34;;;;;;;;;;;32.40;96.20;;;;;;5071548;28;19928;-84
2021/07/24 13:43:03;;;;;;;;;;;32.90;95.80;;;;;;5070778;28;20453;-85
2021/07/24 13:45:29;;;;;;;;;;;32.80;94.70;;;;;;5071608;28;20031;-85
2021/07/24 13:47:58;;;;;;;;;;;32.60;94.50;;;;;;5087844;28;19924;-86
2021/07/24 13:50:24;;;;;;;;;;;32.80;94.20;;;;;;5087687;28;20327;-86
2021/07/24 13:52:49;;;;;;;;;;;32.90;93.80;;;;;;5071417;28;19935;-86
2021/07/24 13:55:15;;;;;;;;;;;32.90;93.80;;;;;;5070585;28;20328;-85
2021/07/24 13:57:41;;;;;;;;;;;33.00;93.80;;;;;;5070927;28;19925;-86
2021/07/24 14:00:07;;;;;;;;;;;32.80;93.30;;;;;;5071669;28;19929;-86
2021/07/24 14:02:34;;;;;;;;;;;32.80;93.10;;;;;;5054945;28;19924;-87
2021/07/24 14:04:59;;;;;;;;;;;32.90;93.10;;;;;;5066769;28;19999;-90
2021/07/24 14:07:25;;;;;;;;;;;32.90;92.80;;;;;;5070681;28;20460;-86
2021/07/24 14:09:55;;;;;;;;;;;32.80;93.50;;;;;;5070723;28;20296;-87
2021/07/24 14:12:21;;;;;;;;;;;32.70;92.80;;;;;;5069890;28;20011;-87
2021/07/24 14:14:46;;;;;;;;;;;32.70;91.80;;;;;;5071930;28;20015;-86
2021/07/24 14:17:14;;;;;;;;;;;32.30;92.70;;;;;;5070100;28;19959;-87
2021/07/24 14:19:40;;;;;;;;;;;32.20;92.80;;;;;;5063804;28;20721;-88